createdAt,value
2022-07-30T00:02:02.243Z,100.00
2022-07-30T00:04:29.919Z,100.00
2022-07-30T00:06:57.899Z,100.00
2022-07-30T00:09:25.756Z,100.00
2022-07-30T00:11:53.465Z,100.00
2022-07-30T00:14:21.139Z,100.00
2022-07-30T00:16:50.476Z,100.00
2022-07-30T00:19:18.157Z,100.00
2022-07-30T00:21:50.439Z,100.00
2022-07-30T00:24:18.508Z,100.00
2022-07-30T00:26:46.200Z,100.00
2022-07-30T00:29:14.139Z,100.00
2022-07-30T00:31:41.988Z,100.00
2022-07-30T00:34:12.957Z,100.00
2022-07-30T00:36:40.759Z,100.00
2022-07-30T00:39:08.484Z,100.00
2022-07-30T00:41:38.011Z,100.00
2022-07-30T00:44:06.078Z,100.00
2022-07-30T00:46:33.775Z,100.00
2022-07-30T00:49:01.500Z,100.00
2022-07-30T00:51:31.041Z,100.00
2022-07-30T00:54:01.630Z,100.00
2022-07-30T00:56:29.297Z,100.00
2022-07-30T00:58:56.978Z,100.00
2022-07-30T01:01:24.688Z,100.00
2022-07-30T01:03:52.507Z,100.00
2022-07-30T01:06:21.249Z,100.00
2022-07-30T01:08:50.272Z,100.00
2022-07-30T01:11:18.132Z,100.00
2022-07-30T01:13:46.497Z,100.00
2022-07-30T01:16:14.866Z,100.00
2022-07-30T01:19:12.414Z,100.00
2022-07-30T01:21:45.060Z,100.00
2022-07-30T01:24:23.375Z,100.00
2022-07-30T01:26:53.104Z,100.00
2022-07-30T01:29:22.127Z,100.00
2022-07-30T01:31:51.520Z,100.00
2022-07-30T01:34:20.220Z,100.00
2022-07-30T01:36:48.457Z,100.00
2022-07-30T01:39:20.456Z,100.00
2022-07-30T01:41:51.619Z,100.00
2022-07-30T01:44:23.766Z,100.00
2022-07-30T01:46:54.803Z,100.00
2022-07-30T01:49:23.967Z,100.00
2022-07-30T01:51:52.885Z,100.00
2022-07-30T01:54:22.963Z,100.00
2022-07-30T01:56:55.126Z,100.00
2022-07-30T01:59:26.034Z,100.00
2022-07-30T02:01:53.867Z,100.00
2022-07-30T02:04:21.703Z,100.00
2022-07-30T02:07:00.046Z,100.00
2022-07-30T02:09:32.429Z,100.00
2022-07-30T02:12:20.443Z,100.00
2022-07-30T02:14:53.272Z,100.00
2022-07-30T02:17:30.020Z,100.00
2022-07-30T02:20:00.189Z,100.00
2022-07-30T02:22:32.390Z,100.00
2022-07-30T02:25:02.672Z,100.00
2022-07-30T02:27:33.378Z,100.00
2022-07-30T02:30:04.571Z,100.00
2022-07-30T02:32:38.731Z,100.00
2022-07-30T02:35:12.250Z,100.00
2022-07-30T02:37:43.510Z,100.00
2022-07-30T02:40:16.886Z,100.00
2022-07-30T02:42:47.696Z,100.00
2022-07-30T02:45:21.078Z,100.00
2022-07-30T02:47:52.490Z,100.00
2022-07-30T02:50:23.112Z,100.00
2022-07-30T02:52:52.048Z,100.00
2022-07-30T02:55:24.933Z,100.00
2022-07-30T02:57:54.527Z,100.00
2022-07-30T03:00:25.385Z,100.00
2022-07-30T03:02:56.839Z,100.00
2022-07-30T03:05:26.827Z,100.00
2022-07-30T03:07:57.503Z,100.00
2022-07-30T03:10:27.030Z,100.00
2022-07-30T03:12:56.100Z,100.00
2022-07-30T03:15:26.769Z,100.00
2022-07-30T03:17:55.722Z,100.00
2022-07-30T03:20:29.119Z,100.00
2022-07-30T03:22:59.631Z,100.00
2022-07-30T03:25:31.928Z,100.00
2022-07-30T03:28:03.883Z,100.00
2022-07-30T03:30:35.484Z,100.00
2022-07-30T03:33:04.195Z,100.00
2022-07-30T03:35:33.221Z,100.00
2022-07-30T03:38:02.277Z,100.00
2022-07-30T03:40:31.186Z,100.00
2022-07-30T03:42:59.838Z,100.00
2022-07-30T03:45:28.188Z,100.00
2022-07-30T03:48:06.075Z,100.00
2022-07-30T03:50:36.454Z,100.00
2022-07-30T03:53:05.471Z,100.00
2022-07-30T03:55:36.254Z,100.00
2022-07-30T03:58:22.719Z,100.00
2022-07-30T04:00:52.319Z,100.00
2022-07-30T04:03:28.144Z,100.00
2022-07-30T04:06:00.536Z,100.00
2022-07-30T04:08:29.821Z,100.00
2022-07-30T04:10:57.821Z,100.00
2022-07-30T04:13:45.831Z,100.00
2022-07-30T04:16:41.319Z,100.00
2022-07-30T04:19:17.229Z,100.00
2022-07-30T04:21:47.964Z,100.00
2022-07-30T04:24:18.128Z,100.00
2022-07-30T04:26:47.395Z,100.00
2022-07-30T04:29:21.399Z,100.00
2022-07-30T04:31:53.697Z,100.00
2022-07-30T04:34:48.745Z,100.00
2022-07-30T04:37:24.153Z,100.00
2022-07-30T04:39:54.562Z,100.00
2022-07-30T04:42:22.861Z,100.00
2022-07-30T04:45:01.625Z,100.00
2022-07-30T04:47:34.978Z,100.00
2022-07-30T04:50:26.717Z,100.00
2022-07-30T04:52:57.016Z,100.00
2022-07-30T04:55:28.948Z,100.00
2022-07-30T04:57:59.266Z,100.00
2022-07-30T05:00:32.624Z,100.00
2022-07-30T05:03:04.519Z,100.00
2022-07-30T05:05:34.827Z,100.00
2022-07-30T05:08:03.719Z,100.00
2022-07-30T05:10:32.461Z,100.00
2022-07-30T05:13:01.494Z,100.00
2022-07-30T05:15:36.251Z,100.00
2022-07-30T05:18:07.384Z,100.00
2022-07-30T05:20:39.662Z,100.00
2022-07-30T05:23:17.088Z,100.00
2022-07-30T05:25:52.003Z,100.00
2022-07-30T05:28:30.017Z,100.00
2022-07-30T05:31:01.149Z,100.00
2022-07-30T05:33:41.221Z,100.00
2022-07-30T05:36:13.757Z,100.00
2022-07-30T05:38:41.743Z,100.00
2022-07-30T05:41:31.900Z,100.00
2022-07-30T05:44:11.604Z,100.00
2022-07-30T05:46:39.440Z,100.00
2022-07-30T05:49:07.370Z,100.00
2022-07-30T05:51:36.542Z,100.00
2022-07-30T05:54:05.229Z,100.00
2022-07-30T05:57:09.023Z,100.00
2022-07-30T05:59:39.221Z,100.00
2022-07-30T06:02:10.891Z,100.00
2022-07-30T06:04:56.753Z,100.00
2022-07-30T06:07:26.558Z,100.00
2022-07-30T06:09:59.978Z,100.00
2022-07-30T06:12:28.553Z,100.00
2022-07-30T06:14:56.540Z,100.00
2022-07-30T06:17:30.005Z,100.00
2022-07-30T06:20:10.833Z,100.00
2022-07-30T06:22:52.113Z,100.00
2022-07-30T06:25:40.994Z,100.00
2022-07-30T06:28:34.717Z,100.00
2022-07-30T06:30:57.774Z,100.00
2022-07-30T06:33:28.411Z,100.00
2022-07-30T06:35:56.480Z,100.00
2022-07-30T06:38:29.269Z,100.00
2022-07-30T06:41:04.581Z,100.00
2022-07-30T06:43:50.909Z,100.00
2022-07-30T06:46:37.482Z,100.00
2022-07-30T06:49:05.435Z,100.00
2022-07-30T06:51:33.856Z,100.00
2022-07-30T06:54:03.312Z,100.00
2022-07-30T06:56:37.303Z,100.00
2022-07-30T06:59:07.683Z,100.00
2022-07-30T07:01:57.224Z,100.00
2022-07-30T07:04:25.009Z,100.00
2022-07-30T07:06:53.385Z,100.00
2022-07-30T07:09:31.319Z,100.00
2022-07-30T07:12:40.853Z,100.00
2022-07-30T07:15:11.091Z,100.00
2022-07-30T07:17:40.407Z,100.00
2022-07-30T07:20:22.373Z,100.00
2022-07-30T07:22:57.589Z,100.00
2022-07-30T07:25:28.427Z,100.00
2022-07-30T07:28:12.237Z,100.00
2022-07-30T07:30:44.159Z,100.00
2022-07-30T07:33:16.332Z,100.00
2022-07-30T07:35:49.453Z,100.00
2022-07-30T07:38:24.647Z,100.00
2022-07-30T07:40:59.114Z,100.00
2022-07-30T07:43:28.420Z,100.00
2022-07-30T07:45:59.554Z,100.00
2022-07-30T07:48:31.001Z,100.00
2022-07-30T07:51:46.665Z,100.00
2022-07-30T07:54:21.610Z,100.00
2022-07-30T07:56:53.005Z,100.00
2022-07-30T07:59:35.901Z,100.00
2022-07-30T08:02:09.656Z,100.00
2022-07-30T08:04:54.242Z,100.00
2022-07-30T08:07:27.718Z,100.00
2022-07-30T08:10:30.763Z,100.00
2022-07-30T08:13:52.247Z,100.00
2022-07-30T08:16:35.061Z,100.00
2022-07-30T08:19:38.065Z,100.00
2022-07-30T08:22:16.613Z,100.00
2022-07-30T08:24:45.487Z,97.62
2022-07-30T08:27:13.206Z,100.00
2022-07-30T08:29:42.377Z,100.00
2022-07-30T08:32:10.711Z,100.00
2022-07-30T08:34:40.756Z,99.29
2022-07-30T08:37:09.434Z,100.00
2022-07-30T08:39:37.814Z,100.00
2022-07-30T08:42:06.187Z,100.00
2022-07-30T08:44:36.249Z,100.00
2022-07-30T08:47:08.667Z,100.00
2022-07-30T08:50:16.750Z,100.00
2022-07-30T08:53:05.031Z,100.00
2022-07-30T08:55:33.647Z,100.00
2022-07-30T08:58:01.543Z,100.00
2022-07-30T09:00:31.346Z,100.00
2022-07-30T09:03:01.990Z,100.00
2022-07-30T09:05:29.817Z,99.40
2022-07-30T09:07:57.847Z,100.00
2022-07-30T09:10:26.824Z,100.00
2022-07-30T09:12:54.715Z,99.48
2022-07-30T09:15:23.610Z,100.00
2022-07-30T09:17:55.711Z,92.72
2022-07-30T09:20:27.474Z,92.60
2022-07-30T09:22:57.120Z,91.49
2022-07-30T09:25:45.086Z,93.13
2022-07-30T09:28:42.882Z,92.66
2022-07-30T09:31:17.250Z,90.56
2022-07-30T09:34:03.788Z,94.32
2022-07-30T09:37:03.856Z,90.46
2022-07-30T09:39:59.014Z,82.90
2022-07-30T09:43:05.273Z,81.92
2022-07-30T09:45:34.888Z,79.11
2022-07-30T09:48:03.609Z,83.83
2022-07-30T09:50:31.287Z,86.37
2022-07-30T09:53:09.676Z,86.15
2022-07-30T09:55:42.300Z,82.83
2022-07-30T09:58:26.584Z,73.72
2022-07-30T10:00:59.602Z,78.04
2022-07-30T10:03:44.002Z,74.24
2022-07-30T10:06:34.390Z,75.86
2022-07-30T10:09:13.719Z,71.77
2022-07-30T10:11:44.796Z,72.68
2022-07-30T10:14:13.510Z,70.47
2022-07-30T10:16:42.018Z,77.53
2022-07-30T10:19:18.061Z,71.50
2022-07-30T10:22:11.619Z,68.21
2022-07-30T10:25:07.711Z,70.69
2022-07-30T10:27:57.773Z,69.19
2022-07-30T10:30:31.845Z,70.68
2022-07-30T10:33:01.555Z,70.40
2022-07-30T10:35:34.698Z,73.12
2022-07-30T10:38:13.933Z,71.87
2022-07-30T10:40:49.242Z,63.57
2022-07-30T10:43:48.179Z,66.15
2022-07-30T10:46:29.747Z,70.80
2022-07-30T10:49:11.830Z,66.28
2022-07-30T10:51:48.533Z,62.03
2022-07-30T10:54:40.211Z,63.11
2022-07-30T10:57:15.074Z,68.38
2022-07-30T11:00:15.588Z,69.73
2022-07-30T11:03:14.999Z,64.54
2022-07-30T11:05:45.893Z,61.08
2022-07-30T11:08:37.546Z,58.57
2022-07-30T11:12:01.334Z,57.67
2022-07-30T11:15:06.489Z,60.73
2022-07-30T11:18:01.912Z,62.48
2022-07-30T11:20:30.770Z,58.59
2022-07-30T11:23:12.726Z,57.68
2022-07-30T11:25:51.034Z,61.52
2022-07-30T11:28:41.080Z,63.83
2022-07-30T11:31:30.709Z,64.15
2022-07-30T11:34:30.747Z,68.63
2022-07-30T11:37:21.903Z,65.33
2022-07-30T11:40:13.034Z,63.11
2022-07-30T11:42:43.262Z,61.84
2022-07-30T11:45:23.253Z,61.38
2022-07-30T11:47:54.430Z,64.21
2022-07-30T11:50:23.984Z,65.87
2022-07-30T11:52:52.646Z,59.27
2022-07-30T11:55:25.423Z,65.28
2022-07-30T11:57:53.505Z,55.47
2022-07-30T12:00:21.364Z,56.65
2022-07-30T12:05:25.192Z,54.70
2022-07-30T12:07:56.901Z,59.05
2022-07-30T12:10:26.781Z,53.82
2022-07-30T12:13:08.124Z,54.35
2022-07-30T12:15:38.037Z,50.29
2022-07-30T12:18:24.548Z,50.98
2022-07-30T12:21:00.599Z,50.80
2022-07-30T12:23:29.235Z,50.58
2022-07-30T12:25:58.139Z,52.36
2022-07-30T12:28:27.809Z,54.88
2022-07-30T12:30:56.846Z,50.21
2022-07-30T12:33:25.866Z,50.35
2022-07-30T12:35:55.097Z,47.91
2022-07-30T12:38:26.343Z,47.09
2022-07-30T12:40:59.585Z,50.40
2022-07-30T12:43:48.035Z,51.50
2022-07-30T12:46:17.843Z,47.05
2022-07-30T12:49:05.717Z,45.41
2022-07-30T12:51:52.176Z,45.50
2022-07-30T12:54:29.838Z,44.44
2022-07-30T12:57:00.363Z,46.60
2022-07-30T12:59:29.196Z,48.06
2022-07-30T13:02:00.300Z,46.80
2022-07-30T13:04:28.606Z,47.33
2022-07-30T13:07:07.573Z,43.84
2022-07-30T13:09:37.372Z,48.13
2022-07-30T13:12:06.269Z,48.08
2022-07-30T13:14:34.278Z,48.06
2022-07-30T13:17:04.297Z,49.29
2022-07-30T13:19:32.555Z,44.46
2022-07-30T13:22:00.289Z,46.30
2022-07-30T13:24:27.937Z,44.21
2022-07-30T13:26:57.310Z,47.61
2022-07-30T13:29:24.926Z,44.77
2022-07-30T13:31:52.742Z,44.76
2022-07-30T13:34:20.643Z,44.27
2022-07-30T13:36:48.302Z,48.02
2022-07-30T13:39:15.922Z,46.38
2022-07-30T13:41:43.686Z,45.30
2022-07-30T13:44:12.721Z,45.01
2022-07-30T13:46:41.426Z,44.10
2022-07-30T13:49:09.356Z,47.21
2022-07-30T13:51:37.149Z,45.98
2022-07-30T13:54:05.068Z,44.54
2022-07-30T13:56:32.749Z,46.13
2022-07-30T13:59:00.645Z,44.96
2022-07-30T14:01:29.817Z,44.30
2022-07-30T14:03:57.539Z,44.81
2022-07-30T14:06:25.305Z,47.55
2022-07-30T14:08:52.985Z,48.80
2022-07-30T14:11:20.672Z,46.26
2022-07-30T14:13:48.310Z,46.28
2022-07-30T14:16:42.287Z,48.44
2022-07-30T14:19:05.091Z,48.20
2022-07-30T14:21:32.810Z,49.68
2022-07-30T14:24:00.458Z,46.12
